Time;durP1;ratioP1;P1;durP2;ratioP2;P2;SDS_P1;SDS_P2;PMS_P1;PMS_P2;Temp;Humidity;BMP_temperature;BMP_pressure;BME280_temperature;BME280_humidity;BME280_pressure;Samples;Min_cycle;Max_cycle;Signal;HPM_P1;HPM_P2
2021/01/28 00:00:50;;;;;;;16.00;7.28;;;-0.90;99.90;;;;;;5066562;28;20120;-56
2021/01/28 00:03:16;;;;;;;15.00;7.72;;;-0.80;99.90;;;;;;5066508;28;20062;-57
2021/01/28 00:05:43;;;;;;;15.23;6.70;;;-0.90;99.90;;;;;;5068646;28;20039;-56
2021/01/28 00:08:10;;;;;;;18.05;8.00;;;-1.00;99.90;;;;;;5074834;28;20036;-55
2021/01/28 00:10:36;;;;;;;17.42;8.00;;;-1.00;99.90;;;;;;5069127;28;20490;-58
2021/01/28 00:13:07;;;;;;;16.08;7.57;;;-1.10;99.90;;;;;;5065993;28;20029;-55
2021/01/28 00:15:34;;;;;;;17.15;8.07;;;-1.20;99.90;;;;;;5066972;28;20051;-56
2021/01/28 00:18:02;;;;;;;10.90;5.03;;;-1.30;99.90;;;;;;5071164;28;20087;-56
2021/01/28 00:20:32;;;;;;;8.07;3.45;;;-1.20;99.90;;;;;;5082978;28;20032;-57
2021/01/28 00:22:59;;;;;;;6.32;2.70;;;-0.80;99.90;;;;;;5068214;28;20029;-56
2021/01/28 00:25:25;;;;;;;8.27;2.75;;;-0.50;99.90;;;;;;5067219;28;20111;-54
2021/01/28 00:27:52;;;;;;;5.68;2.53;;;-0.40;99.90;;;;;;5067051;28;20048;-56
2021/01/28 00:30:23;;;;;;;6.82;2.42;;;-0.30;99.90;;;;;;5064936;28;20029;-58
2021/01/28 00:32:49;;;;;;;5.10;2.55;;;-0.40;99.90;;;;;;5071503;28;20116;-57
2021/01/28 00:35:23;;;;;;;6.35;2.17;;;-0.40;99.90;;;;;;5078623;28;20513;-56
2021/01/28 00:37:49;;;;;;;9.82;2.13;;;-0.30;99.90;;;;;;5077037;28;20028;-57
2021/01/28 00:40:14;;;;;;;6.15;1.63;;;-0.10;99.90;;;;;;5086459;28;20043;-57
2021/01/28 00:42:40;;;;;;;4.68;2.30;;;-0.10;99.90;;;;;;5080416;28;20035;-58
2021/01/28 00:45:06;;;;;;;6.18;2.13;;;-0.10;99.90;;;;;;5065978;28;20035;-56
2021/01/28 00:47:32;;;;;;;11.20;2.83;;;-0.10;99.90;;;;;;5066060;28;20033;-56
2021/01/28 00:49:58;;;;;;;3.90;1.92;;;-0.20;99.90;;;;;;5067925;28;20028;-58
2021/01/28 00:52:24;;;;;;;9.35;2.30;;;-0.10;99.90;;;;;;5066889;28;20174;-56
2021/01/28 00:54:49;;;;;;;4.75;2.22;;;-0.10;99.90;;;;;;5068025;28;20556;-58
2021/01/28 00:57:15;;;;;;;5.85;2.30;;;-0.10;99.90;;;;;;5066154;28;20078;-56
2021/01/28 00:59:41;;;;;;;5.93;1.90;;;-0.10;99.90;;;;;;5064779;28;20117;-55
2021/01/28 01:02:06;;;;;;;5.05;2.05;;;-0.10;99.90;;;;;;5067900;28;20491;-58
2021/01/28 01:04:32;;;;;;;4.95;1.60;;;-0.10;99.90;;;;;;5067890;28;20070;-58
2021/01/28 01:06:57;;;;;;;7.18;2.13;;;-0.10;99.90;;;;;;5065820;28;20119;-56
2021/01/28 01:09:25;;;;;;;3.42;1.60;;;-0.10;99.90;;;;;;5065755;28;20111;-56
2021/01/28 01:11:53;;;;;;;5.30;2.05;;;-0.10;99.90;;;;;;5067808;28;20544;-57
2021/01/28 01:14:18;;;;;;;6.50;1.85;;;-0.10;99.90;;;;;;5073857;28;20040;-55
2021/01/28 01:16:44;;;;;;;6.65;2.15;;;-0.10;99.90;;;;;;5067618;28;20464;-55
2021/01/28 01:19:11;;;;;;;6.10;2.00;;;-0.20;99.90;;;;;;5065379;28;20044;-55
2021/01/28 01:21:37;;;;;;;5.30;2.08;;;-0.20;99.90;;;;;;5065863;28;20040;-56
2021/01/28 01:24:03;;;;;;;6.07;2.13;;;-0.20;99.90;;;;;;5067961;28;20392;-57
2021/01/28 01:26:29;;;;;;;6.25;1.75;;;-0.30;99.90;;;;;;5086406;28;20043;-54
2021/01/28 01:28:55;;;;;;;9.43;2.38;;;-0.30;99.90;;;;;;5072907;28;20032;-56
2021/01/28 01:31:20;;;;;;;4.13;1.30;;;-0.30;99.90;;;;;;5069014;28;20040;-52
2021/01/28 01:33:46;;;;;;;7.05;1.60;;;-0.30;99.90;;;;;;5071327;28;20040;-56
2021/01/28 01:36:12;;;;;;;9.35;2.47;;;-0.40;99.90;;;;;;5069839;28;20041;-57
2021/01/28 01:38:38;;;;;;;11.80;4.88;;;-0.40;99.90;;;;;;5071323;28;20048;-56
2021/01/28 01:41:03;;;;;;;16.52;5.88;;;-0.60;99.90;;;;;;5069750;28;20487;-58
2021/01/28 01:43:29;;;;;;;19.50;7.28;;;-0.70;99.90;;;;;;5069744;28;20097;-57
2021/01/28 01:46:05;;;;;;;13.82;6.53;;;-0.90;99.90;;;;;;5069923;28;20071;-58
2021/01/28 01:48:36;;;;;;;9.77;3.50;;;-1.00;99.90;;;;;;5071049;28;20083;-58
2021/01/28 01:51:12;;;;;;;6.10;2.58;;;-0.80;99.90;;;;;;5068676;28;20040;-57
2021/01/28 01:53:47;;;;;;;4.70;2.05;;;-0.70;99.90;;;;;;5070912;28;20036;-54
2021/01/28 01:56:38;;;;;;;10.18;2.53;;;-0.60;99.90;;;;;;5068732;28;20028;-57
2021/01/28 01:59:17;;;;;;;6.22;2.40;;;-0.70;99.90;;;;;;5066542;28;20150;-58
2021/01/28 02:01:55;;;;;;;5.15;1.88;;;-0.70;99.90;;;;;;5068563;28;20036;-58
2021/01/28 02:04:21;;;;;;;4.45;1.58;;;-0.60;99.90;;;;;;5083144;28;20385;-55
2021/01/28 02:06:58;;;;;;;5.93;2.03;;;-0.50;99.90;;;;;;5075235;28;20025;-57
2021/01/28 02:09:24;;;;;;;6.28;2.10;;;-0.50;99.90;;;;;;5070542;28;20305;-55
2021/01/28 02:11:50;;;;;;;4.65;1.52;;;-0.50;99.90;;;;;;5068593;28;20032;-55
2021/01/28 02:14:18;;;;;;;3.95;1.48;;;-0.50;99.90;;;;;;5068636;28;20086;-55
2021/01/28 02:17:18;;;;;;;5.93;2.08;;;-0.50;99.90;;;;;;5068396;28;20028;-56
2021/01/28 02:20:06;;;;;;;5.03;1.85;;;-0.40;99.90;;;;;;5059211;28;20052;-53
2021/01/28 02:22:36;;;;;;;4.60;1.70;;;-0.40;99.90;;;;;;5075854;28;20143;-58
2021/01/28 02:25:05;;;;;;;5.75;1.63;;;-0.40;99.90;;;;;;5069702;28;20040;-58
2021/01/28 02:27:31;;;;;;;4.97;1.75;;;-0.40;99.90;;;;;;5067401;28;20124;-53
2021/01/28 02:29:57;;;;;;;5.97;2.25;;;-0.50;99.90;;;;;;5070395;28;20031;-55
2021/01/28 02:32:23;;;;;;;6.18;1.65;;;-0.40;99.90;;;;;;5067991;28;20040;-56
2021/01/28 02:34:49;;;;;;;6.13;1.38;;;-0.50;99.90;;;;;;5075578;28;20040;-53
2021/01/28 02:37:21;;;;;;;4.30;1.73;;;-0.50;99.90;;;;;;5073526;28;20044;-55
2021/01/28 02:39:47;;;;;;;3.05;1.73;;;-0.50;99.90;;;;;;5067770;28;20071;-56
2021/01/28 02:42:32;;;;;;;2.70;0.75;;;-0.40;99.90;;;;;;5068713;28;20500;-56
2021/01/28 02:44:58;;;;;;;4.32;1.05;;;-0.50;99.90;;;;;;5069727;28;20055;-57
2021/01/28 02:47:25;;;;;;;4.38;1.50;;;-0.50;99.90;;;;;;5076002;28;20047;-58
2021/01/28 02:49:51;;;;;;;2.53;1.08;;;-0.50;99.90;;;;;;5077869;28;20103;-54
2021/01/28 02:52:18;;;;;;;4.85;0.80;;;-0.40;99.90;;;;;;5089948;28;20046;-55
2021/01/28 02:54:52;;;;;;;4.97;1.63;;;-0.50;99.90;;;;;;5076309;28;20059;-56
2021/01/28 02:57:18;;;;;;;5.68;1.55;;;-0.50;99.90;;;;;;5067351;28;20037;-56
2021/01/28 02:59:43;;;;;;;6.82;2.05;;;-0.60;99.90;;;;;;5068075;28;20470;-56
2021/01/28 03:02:12;;;;;;;5.80;2.17;;;-0.60;99.90;;;;;;5071608;28;20561;-54
2021/01/28 03:04:38;;;;;;;8.73;3.08;;;-0.70;99.90;;;;;;5068749;28;20103;-55
2021/01/28 03:07:06;;;;;;;12.20;3.38;;;-0.90;99.90;;;;;;5068780;28;20541;-56
2021/01/28 03:09:32;;;;;;;10.20;3.92;;;-1.10;99.90;;;;;;5069337;28;20029;-55
2021/01/28 03:11:58;;;;;;;8.88;3.60;;;-1.30;99.90;;;;;;5080048;28;20089;-58
2021/01/28 03:14:24;;;;;;;8.10;3.33;;;-1.50;99.90;;;;;;5068563;28;20131;-55
2021/01/28 03:16:50;;;;;;;6.22;2.83;;;-1.40;99.90;;;;;;5066951;28;20046;-55
2021/01/28 03:19:18;;;;;;;10.45;3.38;;;-1.30;99.90;;;;;;5068881;28;20052;-53
2021/01/28 03:21:44;;;;;;;9.98;3.50;;;-1.20;99.90;;;;;;5074081;28;20047;-54
2021/01/28 03:24:10;;;;;;;19.35;6.45;;;-1.10;99.90;;;;;;5081834;28;20028;-54
2021/01/28 03:26:36;;;;;;;11.52;3.95;;;-1.10;99.90;;;;;;5069375;28;20070;-52
2021/01/28 03:29:04;;;;;;;5.90;1.98;;;-1.00;99.90;;;;;;5074030;28;20042;-56
2021/01/28 03:31:29;;;;;;;8.77;2.25;;;-1.00;99.90;;;;;;5074006;28;20681;-55
2021/01/28 03:33:55;;;;;;;9.40;3.03;;;-1.00;99.90;;;;;;5066631;28;20040;-56
2021/01/28 03:38:50;;;;;;;4.30;1.55;;;-1.10;99.90;;;;;;5046450;28;20064;-57
2021/01/28 03:41:16;;;;;;;5.78;1.73;;;-1.00;99.90;;;;;;5039550;28;20037;-55
2021/01/28 03:43:41;;;;;;;6.20;1.30;;;-0.90;99.90;;;;;;5041967;28;20403;-55
2021/01/28 03:46:07;;;;;;;2.85;1.30;;;-0.90;99.90;;;;;;5045208;28;20081;-56
2021/01/28 03:48:33;;;;;;;7.18;1.40;;;-0.80;99.90;;;;;;5035964;28;20279;-59
2021/01/28 03:50:59;;;;;;;2.83;1.15;;;-0.80;99.90;;;;;;5048641;28;20459;-55
2021/01/28 03:53:24;;;;;;;4.60;1.63;;;-0.70;99.90;;;;;;5048789;28;20029;-52
2021/01/28 03:55:50;;;;;;;4.63;1.33;;;-0.70;99.90;;;;;;5029391;28;20043;-56
2021/01/28 03:58:16;;;;;;;4.05;1.20;;;-0.70;99.90;;;;;;5047520;28;20041;-55
2021/01/28 04:00:42;;;;;;;5.63;1.23;;;-0.80;99.90;;;;;;5048752;28;20051;-55
2021/01/28 04:03:07;;;;;;;3.92;1.50;;;-0.80;99.90;;;;;;5046518;28;20028;-54
2021/01/28 04:05:33;;;;;;;5.95;1.42;;;-0.80;99.90;;;;;;5048819;28;20036;-55
2021/01/28 04:07:59;;;;;;;2.78;1.00;;;-0.80;99.90;;;;;;5047549;28;20029;-57
2021/01/28 04:10:35;;;;;;;3.67;1.30;;;-0.80;99.90;;;;;;5048874;28;20039;-56
2021/01/28 04:13:01;;;;;;;2.90;1.10;;;-0.70;99.90;;;;;;5045050;28;20032;-57
2021/01/28 04:15:27;;;;;;;6.18;1.02;;;-0.80;99.90;;;;;;5030336;28;20042;-56
2021/01/28 04:17:54;;;;;;;11.25;3.03;;;-0.70;99.90;;;;;;5039538;28;20037;-53
2021/01/28 04:20:25;;;;;;;14.27;2.83;;;-0.80;99.90;;;;;;5048412;28;20041;-56
2021/01/28 04:22:51;;;;;;;4.18;1.30;;;-0.80;99.90;;;;;;5047564;28;20040;-56
2021/01/28 04:25:19;;;;;;;5.55;1.65;;;-0.80;99.90;;;;;;5035737;28;20420;-56
2021/01/28 04:27:45;;;;;;;3.75;1.73;;;-0.80;99.90;;;;;;5035186;28;20116;-57
2021/01/28 04:30:16;;;;;;;3.60;1.52;;;-0.90;99.90;;;;;;5035319;28;20029;-55
2021/01/28 04:32:42;;;;;;;4.45;1.30;;;-0.80;99.90;;;;;;5047277;28;20036;-54
2021/01/28 04:35:09;;;;;;;3.88;1.35;;;-0.90;99.90;;;;;;5041513;28;20029;-55
2021/01/28 04:37:35;;;;;;;3.08;1.15;;;-0.90;99.90;;;;;;5028476;28;20144;-56
2021/01/28 04:40:02;;;;;;;9.07;1.42;;;-0.90;99.90;;;;;;5032535;28;20041;-54
2021/01/28 04:42:58;;;;;;;3.58;1.40;;;-0.90;99.90;;;;;;5046763;28;20585;-56
2021/01/28 04:45:27;;;;;;;3.13;1.05;;;-0.90;99.90;;;;;;5023741;28;20053;-56
2021/01/28 04:47:59;;;;;;;4.00;1.30;;;-0.90;99.90;;;;;;5036608;28;20037;-57
2021/01/28 04:50:30;;;;;;;4.13;1.00;;;-0.90;99.90;;;;;;5048162;28;20057;-57
2021/01/28 04:53:02;;;;;;;2.97;1.10;;;-0.90;99.90;;;;;;5047199;28;20112;-55
2021/01/28 04:55:39;;;;;;;7.57;1.40;;;-0.90;99.90;;;;;;5047188;28;20033;-58
2021/01/28 04:58:06;;;;;;;4.10;0.85;;;-0.90;99.90;;;;;;5036884;28;20554;-57
2021/01/28 05:00:32;;;;;;;3.30;1.20;;;-0.80;99.90;;;;;;5047667;28;20049;-58
2021/01/28 05:03:15;;;;;;;5.15;1.67;;;-0.80;99.90;;;;;;5051130;28;20124;-55
2021/01/28 05:05:41;;;;;;;6.47;1.77;;;-0.90;99.90;;;;;;5050837;28;20063;-56
2021/01/28 05:08:07;;;;;;;5.65;2.28;;;-0.80;99.90;;;;;;5033390;28;20576;-54
2021/01/28 05:10:41;;;;;;;5.72;2.30;;;-1.00;99.90;;;;;;5032739;28;20036;-55
2021/01/28 05:13:07;;;;;;;5.72;1.92;;;-1.10;99.90;;;;;;5050365;28;20037;-57
2021/01/28 05:15:38;;;;;;;3.05;1.25;;;-1.20;99.90;;;;;;5050293;28;20033;-55
2021/01/28 05:18:10;;;;;;;7.28;2.50;;;-1.10;99.90;;;;;;5047008;28;20052;-53
2021/01/28 05:20:37;;;;;;;5.13;1.70;;;-1.10;99.90;;;;;;5050617;28;20040;-56
2021/01/28 05:23:25;;;;;;;4.70;1.83;;;-1.10;99.90;;;;;;5051813;28;20045;-55
2021/01/28 05:25:51;;;;;;;3.40;1.27;;;-1.10;99.90;;;;;;5048249;28;20032;-56
2021/01/28 05:28:21;;;;;;;5.05;1.55;;;-1.10;99.90;;;;;;5044103;28;20025;-58
2021/01/28 05:30:46;;;;;;;3.17;1.38;;;-1.00;99.90;;;;;;5047763;28;20037;-58
2021/01/28 05:33:33;;;;;;;4.22;1.35;;;-1.00;99.90;;;;;;5041914;28;20041;-54
2021/01/28 05:36:16;;;;;;;;;;;-1.00;99.90;;;;;;5048980;28;20082;-57
2021/01/28 05:38:49;;;;;;;6.10;1.00;;;-1.00;99.90;;;;;;5050067;28;20007;-58
2021/01/28 05:41:47;;;;;;;4.63;1.70;;;-1.00;99.90;;;;;;5051241;28;20117;-57
2021/01/28 05:44:33;;;;;;;4.47;1.75;;;-1.00;99.90;;;;;;5046658;28;20512;-56
2021/01/28 05:46:59;;;;;;;3.05;1.10;;;-0.90;99.90;;;;;;5049751;28;20061;-57
2021/01/28 05:49:24;;;;;;;5.97;1.75;;;-0.90;99.90;;;;;;5044408;28;20076;-56
2021/01/28 05:51:51;;;;;;;5.15;1.70;;;-1.00;99.90;;;;;;5050815;28;20087;-55
2021/01/28 05:54:21;;;;;;;3.97;1.48;;;-0.90;99.90;;;;;;5051086;28;20035;-57
2021/01/28 05:56:56;;;;;;;4.07;1.35;;;-0.90;99.90;;;;;;5031266;28;20572;-56
2021/01/28 05:59:40;;;;;;;3.53;1.30;;;-0.90;99.90;;;;;;5048402;28;20049;-57
2021/01/28 06:02:37;;;;;;;3.83;1.48;;;-0.90;99.90;;;;;;5037829;28;20048;-55
2021/01/28 06:05:09;;;;;;;;;;;-0.90;99.90;;;;;;5048259;28;20656;-58
2021/01/28 06:08:02;;;;;;;3.85;1.40;;;-0.90;99.90;;;;;;5050735;28;19909;-56
2021/01/28 06:10:57;;;;;;;3.72;1.58;;;-1.00;99.90;;;;;;5049128;28;20169;-57
2021/01/28 06:13:44;;;;;;;3.15;1.17;;;-1.00;99.90;;;;;;5030295;28;20037;-58
2021/01/28 06:16:34;;;;;;;4.85;1.15;;;-0.90;99.90;;;;;;5032146;28;20038;-57
2021/01/28 06:19:06;;;;;;;3.97;0.93;;;-0.90;99.90;;;;;;5047283;28;20040;-59
2021/01/28 06:21:53;;;;;;;4.70;1.10;;;-0.90;99.90;;;;;;5048252;28;20044;-56
2021/01/28 06:24:52;;;;;;;3.53;1.05;;;-0.90;99.90;;;;;;5034144;28;20037;-57
2021/01/28 06:27:48;;;;;;;2.80;1.05;;;-0.90;99.90;;;;;;5049174;28;20226;-54
2021/01/28 06:30:40;;;;;;;4.40;1.60;;;-0.90;99.90;;;;;;5050399;28;20556;-53
2021/01/28 06:33:34;;;;;;;6.47;2.75;;;-0.90;99.90;;;;;;5046382;28;20154;-58
2021/01/28 06:36:15;;;;;;;4.43;1.92;;;-0.90;99.90;;;;;;5038208;28;20064;-57
2021/01/28 06:39:01;;;;;;;6.38;2.38;;;-0.90;99.90;;;;;;5048797;28;20052;-58
2021/01/28 06:41:31;;;;;;;4.38;2.30;;;-0.90;99.90;;;;;;5048814;28;20063;-56
2021/01/28 06:44:08;;;;;;;5.43;2.25;;;-0.90;99.90;;;;;;5038032;28;20044;-57
2021/01/28 06:46:36;;;;;;;;;;;-0.90;99.90;;;;;;5030584;28;20042;-56
2021/01/28 06:49:25;;;;;;;8.75;2.10;;;-0.90;99.90;;;;;;5043691;28;19947;-56
2021/01/28 06:52:10;;;;;;;8.27;3.45;;;-0.90;99.90;;;;;;5041915;28;20029;-55
2021/01/28 06:55:01;;;;;;;8.02;2.70;;;-0.90;99.90;;;;;;5039530;28;20075;-57
2021/01/28 06:57:43;;;;;;;9.90;3.50;;;-0.90;99.90;;;;;;5041400;28;20078;-56
2021/01/28 07:00:27;;;;;;;7.07;3.03;;;-0.90;99.90;;;;;;5045333;28;20034;-58
2021/01/28 07:03:00;;;;;;;8.40;2.70;;;-0.90;99.90;;;;;;5046337;28;20043;-55
2021/01/28 07:05:33;;;;;;;7.68;3.35;;;-0.90;99.90;;;;;;5047062;28;20058;-56
2021/01/28 07:08:38;;;;;;;6.75;2.70;;;-0.90;99.90;;;;;;5050832;28;20078;-57
2021/01/28 07:11:04;;;;;;;8.77;2.45;;;-0.90;99.90;;;;;;5057519;28;20041;-57
2021/01/28 07:13:37;;;;;;;7.75;2.70;;;-0.90;99.90;;;;;;5054391;28;20067;-58
2021/01/28 07:16:30;;;;;;;4.60;2.22;;;-0.90;99.90;;;;;;5049494;28;20029;-59
2021/01/28 07:19:15;;;;;;;5.95;2.38;;;-0.90;99.90;;;;;;5049603;28;20079;-58
2021/01/28 07:21:46;;;;;;;4.32;2.05;;;-0.90;99.90;;;;;;5047738;28;20033;-59
2021/01/28 07:24:26;;;;;;;6.20;2.53;;;-0.80;99.90;;;;;;5046435;28;20036;-58
2021/01/28 07:26:57;;;;;;;9.88;2.60;;;-0.80;99.90;;;;;;5046304;28;20043;-56
2021/01/28 07:29:34;;;;;;;5.47;2.15;;;-0.80;99.90;;;;;;5046755;28;20032;-54
2021/01/28 07:32:02;;;;;;;7.20;2.65;;;-0.80;99.90;;;;;;5050028;28;20025;-52
2021/01/28 07:34:28;;;;;;;5.63;2.70;;;-0.70;99.90;;;;;;5055517;28;20028;-54
2021/01/28 07:37:15;;;;;;;3.58;1.60;;;-0.70;99.90;;;;;;5058872;28;20036;-56
2021/01/28 07:39:41;;;;;;;6.90;2.47;;;-0.70;99.90;;;;;;5048736;28;20128;-58
2021/01/28 07:42:16;;;;;;;5.70;2.22;;;-0.60;99.90;;;;;;5048033;28;20459;-56
2021/01/28 07:44:48;;;;;;;12.13;2.28;;;-0.50;99.90;;;;;;5049316;28;20091;-55
2021/01/28 07:47:29;;;;;;;6.53;2.15;;;-0.50;99.90;;;;;;5059582;28;20082;-56
2021/01/28 07:50:19;;;;;;;6.70;2.08;;;-0.40;99.90;;;;;;5069070;28;20043;-56
2021/01/28 07:52:46;;;;;;;6.57;2.88;;;-0.40;99.90;;;;;;5049077;28;20380;-52
2021/01/28 07:55:48;;;;;;;7.32;2.75;;;-0.40;99.90;;;;;;5039889;28;20041;-54
2021/01/28 07:58:25;;;;;;;6.00;2.35;;;-0.30;99.90;;;;;;5069159;28;20041;-57
2021/01/28 08:00:51;;;;;;;9.32;2.33;;;-0.20;99.90;;;;;;5053049;28;20044;-53
2021/01/28 08:03:36;;;;;;;8.00;2.70;;;-0.10;99.90;;;;;;5049093;28;20021;-55
2021/01/28 08:06:10;;;;;;;5.38;2.55;;;0.00;99.90;;;;;;5043232;28;20458;-53
2021/01/28 08:08:36;;;;;;;5.47;2.50;;;0.00;99.90;;;;;;5029004;28;20025;-56
2021/01/28 08:11:19;;;;;;;6.75;3.03;;;0.10;99.90;;;;;;5033770;28;20033;-54
2021/01/28 08:13:46;;;;;;;5.50;2.47;;;0.20;99.90;;;;;;5048960;28;20452;-58
2021/01/28 08:16:17;;;;;;;8.70;3.03;;;0.20;99.90;;;;;;5047139;28;20489;-57
2021/01/28 08:18:58;;;;;;;5.75;2.70;;;0.30;99.90;;;;;;5048331;28;20525;-57
2021/01/28 08:21:28;;;;;;;7.53;2.80;;;0.30;99.90;;;;;;5048555;28;20033;-56
2021/01/28 08:23:55;;;;;;;5.63;2.03;;;0.40;99.90;;;;;;5048397;28;20060;-56
2021/01/28 08:26:34;;;;;;;6.35;2.28;;;0.30;99.90;;;;;;5048716;28;20116;-55
2021/01/28 08:29:06;;;;;;;8.70;2.17;;;0.40;99.90;;;;;;5048589;28;20075;-58
2021/01/28 08:31:42;;;;;;;5.78;2.05;;;0.40;99.90;;;;;;5048613;28;20032;-58
2021/01/28 08:34:15;;;;;;;3.85;1.85;;;0.50;99.90;;;;;;5048685;28;20033;-55
2021/01/28 08:36:49;;;;;;;5.00;1.90;;;0.70;99.90;;;;;;5052411;28;20419;-58
2021/01/28 08:39:17;;;;;;;5.25;2.35;;;0.80;99.90;;;;;;5052604;28;20146;-58
2021/01/28 08:41:46;;;;;;;8.93;3.42;;;0.90;99.90;;;;;;5052551;28;20444;-55
2021/01/28 08:44:15;;;;;;;5.57;3.08;;;1.00;99.90;;;;;;5052277;28;20037;-54
2021/01/28 08:46:42;;;;;;;4.85;2.72;;;1.00;99.90;;;;;;5052207;28;20044;-57
2021/01/28 08:49:20;;;;;;;5.30;2.35;;;1.10;99.90;;;;;;5052590;28;20142;-54
2021/01/28 08:51:58;;;;;;;6.63;3.05;;;1.20;99.90;;;;;;5052374;28;20111;-57
2021/01/28 08:54:28;;;;;;;9.75;2.92;;;1.30;99.90;;;;;;5052155;28;20488;-55
2021/01/28 08:56:57;;;;;;;11.02;3.42;;;1.40;99.90;;;;;;5052386;28;20067;-56
2021/01/28 08:59:38;;;;;;;8.93;3.78;;;1.50;99.90;;;;;;5051921;28;20041;-55
2021/01/28 09:02:04;;;;;;;7.05;2.72;;;1.60;99.90;;;;;;5051992;28;20065;-56
2021/01/28 09:04:37;;;;;;;8.35;3.47;;;1.70;99.90;;;;;;5052027;28;20138;-52
2021/01/28 09:07:03;;;;;;;7.18;3.40;;;1.80;99.90;;;;;;5051873;28;20068;-58
2021/01/28 09:09:31;;;;;;;6.35;2.90;;;1.80;99.90;;;;;;5052158;28;20106;-55
2021/01/28 09:12:16;;;;;;;4.22;2.28;;;1.80;99.90;;;;;;5051731;28;20054;-57
2021/01/28 09:14:42;;;;;;;9.02;2.88;;;1.90;99.90;;;;;;5051973;28;20044;-55
2021/01/28 09:17:38;;;;;;;6.00;2.75;;;1.90;99.90;;;;;;5051888;28;20079;-56
2021/01/28 09:20:05;;;;;;;6.20;2.55;;;2.00;99.90;;;;;;5043046;28;20114;-57
2021/01/28 09:22:41;;;;;;;8.27;3.60;;;2.00;99.90;;;;;;5051415;28;20032;-54
2021/01/28 09:25:21;;;;;;;9.63;3.65;;;2.10;99.90;;;;;;5046398;28;20040;-56
2021/01/28 09:28:23;;;;;;;9.35;4.88;;;2.20;99.90;;;;;;5046902;28;20037;-57
2021/01/28 09:30:52;;;;;;;11.38;4.05;;;2.20;99.90;;;;;;5050739;28;20190;-56
2021/01/28 09:33:21;;;;;;;8.30;4.22;;;2.30;99.90;;;;;;5046136;28;20398;-56
2021/01/28 09:36:03;;;;;;;9.45;4.22;;;2.40;99.90;;;;;;5046934;28;20377;-59
2021/01/28 09:38:29;;;;;;;10.30;5.00;;;2.40;99.90;;;;;;5037122;28;20049;-56
2021/01/28 09:41:15;;;;;;;13.93;5.80;;;2.60;99.90;;;;;;5048418;28;20032;-57
2021/01/28 09:43:41;;;;;;;14.95;4.90;;;2.70;99.90;;;;;;5035132;28;20174;-56
2021/01/28 09:46:18;;;;;;;7.85;3.95;;;2.90;99.90;;;;;;5045771;28;20124;-58
2021/01/28 09:48:53;;;;;;;10.80;5.15;;;3.10;99.90;;;;;;5049303;28;20354;-56
2021/01/28 09:51:34;;;;;;;13.68;6.88;;;3.10;99.90;;;;;;5063102;28;20064;-58
2021/01/28 09:54:15;;;;;;;12.95;6.75;;;3.20;99.90;;;;;;5050894;28;20027;-58
2021/01/28 09:56:42;;;;;;;9.48;5.20;;;3.10;99.90;;;;;;5049860;28;20091;-57
2021/01/28 09:59:09;;;;;;;8.95;4.45;;;3.20;99.90;;;;;;5057425;28;20044;-58
2021/01/28 10:01:35;;;;;;;7.15;3.65;;;3.20;99.90;;;;;;5050957;28;20037;-57
2021/01/28 10:04:01;;;;;;;11.68;5.03;;;3.20;99.90;;;;;;5050651;28;20063;-58
2021/01/28 10:06:26;;;;;;;8.63;5.32;;;3.30;99.90;;;;;;5044294;28;20065;-58
2021/01/28 10:08:52;;;;;;;10.77;5.38;;;3.30;99.90;;;;;;5050945;28;20439;-57
2021/01/28 10:11:18;;;;;;;9.85;4.53;;;3.40;99.90;;;;;;5045752;28;20039;-58
2021/01/28 10:13:44;;;;;;;12.02;5.82;;;3.40;99.90;;;;;;5050858;28;20048;-57
2021/01/28 10:16:10;;;;;;;10.70;4.68;;;3.40;99.90;;;;;;5050743;28;20028;-57
2021/01/28 10:18:36;;;;;;;8.07;5.07;;;3.50;99.90;;;;;;5035353;28;20338;-58
2021/01/28 10:21:01;;;;;;;10.20;4.82;;;3.60;99.90;;;;;;5037355;28;20041;-58
2021/01/28 10:23:27;;;;;;;12.50;5.93;;;3.60;99.90;;;;;;5048242;28;20032;-57
2021/01/28 10:25:53;;;;;;;17.20;6.45;;;3.60;99.90;;;;;;5049312;28;20245;-58
2021/01/28 10:28:19;;;;;;;12.52;6.18;;;3.70;99.90;;;;;;5050282;28;20033;-58
2021/01/28 10:30:44;;;;;;;11.88;5.00;;;3.70;99.90;;;;;;5037539;28;20037;-56
2021/01/28 10:33:11;;;;;;;9.50;4.07;;;3.70;99.90;;;;;;5039731;28;20484;-58
2021/01/28 10:35:37;;;;;;;13.77;4.88;;;3.70;99.90;;;;;;5041149;28;20064;-57
2021/01/28 10:38:05;;;;;;;12.55;4.88;;;3.80;99.90;;;;;;5033607;28;20592;-53
2021/01/28 10:40:32;;;;;;;8.10;4.35;;;3.90;99.90;;;;;;5033782;28;20507;-58
2021/01/28 10:43:02;;;;;;;7.95;4.45;;;3.90;99.90;;;;;;5040683;28;20050;-57
2021/01/28 10:45:37;;;;;;;9.30;4.72;;;4.00;99.90;;;;;;5048152;28;20044;-56
2021/01/28 10:48:04;;;;;;;11.90;4.65;;;4.00;99.90;;;;;;5048799;28;20103;-51
2021/01/28 10:50:32;;;;;;;10.23;3.67;;;4.10;99.90;;;;;;5051056;28;20083;-52
2021/01/28 10:52:58;;;;;;;10.05;4.57;;;4.10;99.70;;;;;;5049900;28;20047;-56
2021/01/28 10:55:26;;;;;;;9.00;4.50;;;4.20;99.40;;;;;;5049750;28;20033;-53
2021/01/28 10:57:52;;;;;;;10.38;4.30;;;4.20;99.90;;;;;;5048995;28;20033;-57
2021/01/28 11:00:19;;;;;;;12.10;4.47;;;4.10;99.90;;;;;;5048559;28;20041;-58
2021/01/28 11:02:45;;;;;;;9.80;4.03;;;4.20;99.90;;;;;;5049159;28;20029;-57
2021/01/28 11:05:20;;;;;;;6.13;3.45;;;4.20;99.90;;;;;;5044778;28;20621;-58
2021/01/28 11:07:46;;;;;;;7.75;3.70;;;4.30;99.90;;;;;;5037577;28;20033;-53
2021/01/28 11:10:13;;;;;;;8.75;3.78;;;4.30;99.90;;;;;;5044598;28;20031;-57
2021/01/28 11:12:39;;;;;;;12.00;4.00;;;4.40;99.90;;;;;;5049603;28;20067;-49
2021/01/28 11:15:06;;;;;;;8.30;3.13;;;4.50;99.90;;;;;;5041371;28;20033;-56
2021/01/28 11:17:32;;;;;;;13.60;4.40;;;4.60;99.90;;;;;;5048629;28;20037;-56
2021/01/28 11:19:57;;;;;;;8.52;4.35;;;4.60;99.90;;;;;;5048160;28;20564;-55
2021/01/28 11:22:23;;;;;;;7.78;3.67;;;4.70;99.90;;;;;;5046833;28;20036;-55
2021/01/28 11:24:50;;;;;;;9.73;4.25;;;4.70;99.90;;;;;;5048868;28;20417;-55
2021/01/28 11:27:16;;;;;;;10.20;3.67;;;4.80;99.90;;;;;;5049241;28;20106;-53
2021/01/28 11:29:43;;;;;;;7.72;3.88;;;4.80;99.90;;;;;;5044132;28;20477;-54
2021/01/28 11:32:09;;;;;;;8.55;4.10;;;4.80;99.90;;;;;;5049265;28;20033;-54
2021/01/28 11:34:35;;;;;;;14.00;4.00;;;4.70;99.90;;;;;;5042803;28;20456;-56
2021/01/28 11:37:01;;;;;;;14.02;5.32;;;4.80;99.90;;;;;;5045095;28;21254;-53
2021/01/28 11:39:26;;;;;;;12.93;5.18;;;4.70;99.90;;;;;;5039117;28;20587;-53
2021/01/28 11:41:52;;;;;;;12.77;4.93;;;4.70;99.90;;;;;;5041810;28;20080;-56
2021/01/28 11:44:18;;;;;;;15.57;4.88;;;4.70;99.90;;;;;;5045416;28;20033;-50
2021/01/28 11:46:44;;;;;;;12.15;4.80;;;4.80;99.90;;;;;;5043559;28;20485;-57
2021/01/28 11:49:09;;;;;;;13.35;4.20;;;4.90;99.90;;;;;;5041889;28;20029;-56
2021/01/28 11:51:35;;;;;;;17.23;5.43;;;4.90;99.90;;;;;;5043634;28;20033;-57
2021/01/28 11:54:01;;;;;;;15.68;6.05;;;5.00;99.90;;;;;;5043789;28;20611;-58
2021/01/28 11:56:27;;;;;;;11.40;4.88;;;4.90;99.90;;;;;;5044659;28;20044;-58
2021/01/28 11:58:52;;;;;;;8.95;3.63;;;4.80;99.90;;;;;;5043679;28;20053;-54
2021/01/28 12:01:18;;;;;;;12.60;4.47;;;4.90;99.90;;;;;;5068496;28;20025;-53
2021/01/28 12:03:44;;;;;;;13.88;4.30;;;5.00;99.90;;;;;;5062189;28;20033;-57
2021/01/28 12:06:09;;;;;;;14.35;4.10;;;5.00;99.90;;;;;;5045395;28;20148;-55
2021/01/28 12:08:35;;;;;;;10.70;4.90;;;5.00;99.90;;;;;;5046804;28;20029;-57
2021/01/28 12:11:01;;;;;;;11.85;6.03;;;5.10;99.90;;;;;;5047916;28;21002;-52
2021/01/28 12:13:26;;;;;;;18.55;7.75;;;5.10;99.90;;;;;;5033015;28;20370;-55
2021/01/28 12:15:52;;;;;;;9.73;4.63;;;5.10;99.90;;;;;;5036386;28;20436;-53
2021/01/28 12:18:18;;;;;;;11.98;4.30;;;5.00;99.90;;;;;;5047246;28;20351;-54
2021/01/28 12:20:44;;;;;;;13.68;4.57;;;4.90;99.90;;;;;;5042077;28;20451;-55
2021/01/28 12:23:10;;;;;;;10.35;4.35;;;4.90;99.90;;;;;;5035195;28;20034;-55
2021/01/28 12:25:36;;;;;;;7.20;4.00;;;4.90;99.90;;;;;;5028396;28;20025;-53
2021/01/28 12:28:01;;;;;;;12.90;4.28;;;4.90;99.90;;;;;;5036938;28;20036;-56
2021/01/28 12:30:27;;;;;;;11.82;4.28;;;4.80;99.90;;;;;;5055706;28;20029;-54
2021/01/28 12:32:53;;;;;;;9.02;4.38;;;4.90;99.90;;;;;;5047731;28;20578;-49
2021/01/28 12:35:21;;;;;;;9.73;4.47;;;5.00;99.90;;;;;;5044158;28;20032;-54
2021/01/28 12:37:47;;;;;;;9.10;3.92;;;5.10;99.90;;;;;;5046221;28;20119;-56
2021/01/28 12:40:15;;;;;;;8.50;4.13;;;5.10;99.90;;;;;;5028509;28;20087;-57
2021/01/28 12:42:42;;;;;;;9.48;3.83;;;5.30;99.90;;;;;;5028232;28;20139;-55
2021/01/28 12:45:08;;;;;;;11.13;3.42;;;5.30;99.90;;;;;;5042011;28;20563;-57
2021/01/28 12:47:34;;;;;;;6.80;3.78;;;5.30;99.90;;;;;;5047272;28;20047;-57
2021/01/28 12:50:00;;;;;;;5.75;3.70;;;5.40;99.90;;;;;;5045664;28;20037;-57
2021/01/28 12:52:25;;;;;;;7.60;3.25;;;5.40;99.90;;;;;;5046613;28;20510;-58
2021/01/28 12:54:51;;;;;;;5.60;3.85;;;5.40;99.90;;;;;;5048120;28;20029;-57
2021/01/28 12:57:18;;;;;;;7.22;4.68;;;5.50;99.90;;;;;;5037574;28;20499;-57
2021/01/28 12:59:45;;;;;;;7.32;4.03;;;5.40;99.90;;;;;;5048118;28;20821;-54
2021/01/28 13:02:12;;;;;;;19.05;5.95;;;5.40;99.90;;;;;;5045715;28;20029;-55
2021/01/28 13:04:37;;;;;;;11.23;5.25;;;5.50;99.90;;;;;;5037967;28;20052;-57
2021/01/28 13:07:03;;;;;;;6.03;3.90;;;5.50;99.90;;;;;;5039984;28;20158;-55
2021/01/28 13:09:29;;;;;;;9.88;4.32;;;5.60;99.90;;;;;;5046743;28;20037;-57
2021/01/28 13:11:54;;;;;;;14.65;4.88;;;5.60;99.90;;;;;;5047209;28;20029;-58